Time;durP1;ratioP1;P1;durP2;ratioP2;P2;SDS_P1;SDS_P2;PMS_P1;PMS_P2;Temp;Humidity;BMP_temperature;BMP_pressure;BME280_temperature;BME280_humidity;BME280_pressure;Samples;Min_cycle;Max_cycle;Signal;HPM_P1;HPM_P2
2023/12/18 00:01:06;;;;;;;28.08;12.70;;;;;;;6.91;100.00;103220.97;5074821;28;20032;-74
2023/12/18 00:03:31;;;;;;;25.05;11.93;;;;;;;6.89;100.00;103220.09;5074403;28;20404;-74
2023/12/18 00:05:56;;;;;;;22.95;11.57;;;;;;;6.88;100.00;103215.72;5075349;28;20052;-74
2023/12/18 00:08:22;;;;;;;26.98;11.95;;;;;;;6.93;100.00;103221.00;5074842;28;20208;-74
2023/12/18 00:10:47;;;;;;;24.08;11.85;;;;;;;6.90;100.00;103216.59;5074932;28;20426;-74
2023/12/18 00:13:12;;;;;;;28.92;11.82;;;;;;;6.90;100.00;103220.94;5074641;28;20327;-74
2023/12/18 00:15:38;;;;;;;22.27;11.43;;;;;;;6.92;100.00;103214.03;5075011;28;20062;-74
2023/12/18 00:18:03;;;;;;;20.88;10.60;;;;;;;6.93;100.00;103213.19;5076724;28;20038;-74
2023/12/18 00:20:29;;;;;;;30.17;11.43;;;;;;;6.91;100.00;103205.34;5080469;28;20076;-74
2023/12/18 00:22:54;;;;;;;26.92;11.85;;;;;;;6.90;100.00;103205.31;5077244;28;20096;-74
2023/12/18 00:25:19;;;;;;;23.50;10.90;;;;;;;6.90;100.00;103205.31;5077677;28;20259;-74
2023/12/18 00:27:45;;;;;;;22.48;11.77;;;;;;;6.93;100.00;103194.94;5078095;28;20298;-74
2023/12/18 00:30:10;;;;;;;22.15;11.20;;;;;;;6.89;100.00;103188.81;5087057;28;20039;-74
2023/12/18 00:32:36;;;;;;;26.63;11.02;;;;;;;6.91;100.00;103196.63;5092456;28;20039;-74
2023/12/18 00:35:01;;;;;;;26.45;11.52;;;;;;;6.88;100.00;103184.44;5075560;28;20032;-74
2023/12/18 00:37:26;;;;;;;26.15;11.20;;;;;;;6.92;100.00;103191.44;5076130;28;20051;-74
2023/12/18 00:39:52;;;;;;;22.23;11.57;;;;;;;6.91;100.00;103186.22;5076516;28;20106;-74
2023/12/18 00:42:17;;;;;;;23.15;11.77;;;;;;;6.98;100.00;103198.44;5075244;28;20273;-74
2023/12/18 00:44:42;;;;;;;26.35;11.63;;;;;;;6.96;100.00;103186.28;5079187;28;20051;-74
2023/12/18 00:47:08;;;;;;;21.30;11.48;;;;;;;6.95;100.00;103188.03;5080104;28;20040;-74
2023/12/18 00:49:33;;;;;;;24.90;11.35;;;;;;;6.95;100.00;103188.03;5088873;28;20036;-74
2023/12/18 00:51:59;;;;;;;27.65;11.77;;;;;;;6.98;100.00;103188.03;5075114;28;20036;-74
2023/12/18 00:54:24;;;;;;;21.40;10.85;;;;;;;6.95;100.00;103185.41;5074247;28;20286;-74
2023/12/18 00:56:50;;;;;;;23.45;11.45;;;;;;;6.93;100.00;103194.94;5074382;28;20470;-72
2023/12/18 00:59:15;;;;;;;19.58;10.73;;;;;;;6.99;100.00;103191.53;5074873;28;20033;-72
2023/12/18 01:01:42;;;;;;;23.63;10.85;;;;;;;7.02;100.00;103191.53;5076110;28;20035;-72
2023/12/18 01:04:07;;;;;;;26.60;11.00;;;;;;;7.02;100.00;103187.25;5079736;28;20036;-72
2023/12/18 01:06:33;;;;;;;20.60;11.43;;;;;;;6.99;100.00;103175.91;5074334;28;20161;-72
2023/12/18 01:08:58;;;;;;;20.42;11.88;;;;;;;6.98;100.00;103184.56;5074388;28;20032;-72
2023/12/18 01:11:23;;;;;;;19.15;11.98;;;;;;;6.96;100.00;103174.13;5085015;28;20040;-72
2023/12/18 01:13:49;;;;;;;20.92;11.05;;;;;;;6.99;100.00;103173.28;5078803;28;20074;-72
2023/12/18 01:16:14;;;;;;;17.13;10.90;;;;;;;6.99;100.00;103176.75;5074883;28;20082;-72
2023/12/18 01:18:39;;;;;;;18.77;10.75;;;;;;;7.02;100.00;103171.59;5079394;28;20048;-72
2023/12/18 01:21:05;;;;;;;16.63;11.15;;;;;;;7.01;100.00;103168.97;5076654;28;20332;-72
2023/12/18 01:23:30;;;;;;;14.25;10.57;;;;;;;7.03;100.00;103169.84;5073985;28;20028;-72
2023/12/18 01:25:55;;;;;;;21.75;12.15;;;;;;;7.01;100.00;103168.97;5075171;28;20089;-72
2023/12/18 01:28:20;;;;;;;18.25;11.30;;;;;;;7.01;100.00;103167.22;5079025;28;20032;-72
2023/12/18 01:30:46;;;;;;;23.30;12.07;;;;;;;7.01;100.00;103179.41;5077786;28;20071;-72
2023/12/18 01:33:11;;;;;;;18.33;11.90;;;;;;;7.03;100.00;103177.69;5081486;28;20028;-72
2023/12/18 01:35:36;;;;;;;23.73;12.00;;;;;;;6.98;100.00;103172.41;5079194;28;20044;-72
2023/12/18 01:38:02;;;;;;;21.88;12.60;;;;;;;6.96;100.00;103168.91;5074084;28;20054;-72
2023/12/18 01:40:27;;;;;;;20.42;12.27;;;;;;;6.96;100.00;103162.84;5077496;28;20035;-72
2023/12/18 01:42:53;;;;;;;30.05;13.65;;;;;;;6.94;100.00;103161.94;5079289;28;20044;-72
2023/12/18 01:45:18;;;;;;;21.15;11.90;;;;;;;6.96;100.00;103168.03;5064311;28;20024;-72
2023/12/18 01:47:44;;;;;;;24.25;12.75;;;;;;;6.95;100.00;103161.97;5073339;28;20366;-72
2023/12/18 01:50:10;;;;;;;22.63;13.05;;;;;;;6.88;100.00;103167.97;5076007;28;20251;-72
2023/12/18 01:52:37;;;;;;;19.48;12.82;;;;;;;6.84;100.00;103164.44;5080899;28;20089;-72
2023/12/18 01:55:04;;;;;;;18.52;11.63;;;;;;;6.92;100.00;103164.53;5072917;28;20040;-72
2023/12/18 01:57:31;;;;;;;20.15;12.55;;;;;;;6.92;100.00;103160.19;5073737;28;20036;-72
2023/12/18 01:59:57;;;;;;;29.88;12.68;;;;;;;6.89;100.00;103174.91;5077015;28;20032;-72
2023/12/18 02:02:22;;;;;;;24.73;13.00;;;;;;;6.89;100.00;103172.28;5074800;28;20330;-72
2023/12/18 02:04:48;;;;;;;25.30;13.23;;;;;;;6.90;100.00;103179.25;5073607;28;20029;-72
2023/12/18 02:07:13;;;;;;;26.52;13.32;;;;;;;6.89;100.00;103182.72;5072969;28;20031;-72
2023/12/18 02:09:41;;;;;;;20.50;12.63;;;;;;;6.85;100.00;103178.34;5078920;28;20385;-72
2023/12/18 02:12:07;;;;;;;19.17;12.73;;;;;;;6.83;100.00;103170.50;5079850;28;20294;-72
2023/12/18 02:14:32;;;;;;;18.52;12.10;;;;;;;6.85;100.00;103160.97;5073186;28;20286;-72
2023/12/18 02:16:57;;;;;;;23.17;13.07;;;;;;;6.84;100.00;103159.22;5070579;28;20301;-72
2023/12/18 02:19:33;;;;;;;25.80;12.30;;;;;;;6.87;100.00;103154.03;5086026;28;20477;-72
2023/12/18 02:21:58;;;;;;;20.52;12.18;;;;;;;6.89;100.00;103152.34;5080235;28;20103;-72
2023/12/18 02:24:24;;;;;;;26.95;13.55;;;;;;;6.90;100.00;103163.63;5078947;28;20101;-72
2023/12/18 02:26:50;;;;;;;21.90;12.23;;;;;;;6.93;100.00;103158.47;5078573;28;20051;-72
2023/12/18 02:29:15;;;;;;;22.15;12.07;;;;;;;6.88;100.00;103152.31;5085957;28;20036;-72
2023/12/18 02:31:42;;;;;;;25.23;13.05;;;;;;;6.88;100.00;103157.53;5082347;28;20044;-72
2023/12/18 02:34:07;;;;;;;23.88;12.02;;;;;;;6.89;100.00;103156.66;5081899;28;20100;-72
2023/12/18 02:36:32;;;;;;;32.42;12.95;;;;;;;6.88;100.00;103157.53;5077280;28;20539;-72
2023/12/18 02:38:58;;;;;;;23.48;12.98;;;;;;;6.90;100.00;103142.78;5077084;28;20036;-72
2023/12/18 02:41:23;;;;;;;21.73;12.88;;;;;;;6.91;100.00;103136.72;5077229;28;20047;-72
2023/12/18 02:43:49;;;;;;;22.70;12.35;;;;;;;6.91;100.00;103137.59;5081063;28;20044;-72
2023/12/18 02:46:14;;;;;;;29.45;12.25;;;;;;;6.90;100.00;103128.03;5079212;28;20338;-72
2023/12/18 02:48:40;;;;;;;22.27;12.88;;;;;;;6.91;100.00;103131.50;5079565;28;20040;-72
2023/12/18 02:51:05;;;;;;;19.38;11.98;;;;;;;6.93;100.00;103140.25;5083409;28;20044;-72
2023/12/18 02:53:31;;;;;;;23.25;12.60;;;;;;;6.92;100.00;103133.25;5078228;28;20042;-72
2023/12/18 02:55:56;;;;;;;23.20;12.05;;;;;;;6.99;100.00;103145.50;5076358;28;20040;-72
2023/12/18 02:58:22;;;;;;;18.30;11.50;;;;;;;6.99;100.00;103148.09;5080787;28;20087;-72
2023/12/18 03:00:48;;;;;;;16.77;11.20;;;;;;;7.01;100.00;103142.91;5078096;28;20086;-72
2023/12/18 03:03:14;;;;;;;20.75;12.02;;;;;;;7.00;100.00;103142.03;5077363;28;20301;-72
2023/12/18 03:05:39;;;;;;;20.83;11.82;;;;;;;6.99;100.00;103137.69;5076580;28;20032;-72
2023/12/18 03:08:05;;;;;;;22.90;11.65;;;;;;;7.00;100.00;103136.81;5076642;28;20360;-72
2023/12/18 03:10:30;;;;;;;19.17;11.40;;;;;;;7.01;100.00;103130.75;5079924;28;20037;-72
2023/12/18 03:12:56;;;;;;;25.63;12.82;;;;;;;7.00;100.00;103134.22;5080034;28;20044;-72
2023/12/18 03:15:21;;;;;;;24.65;11.48;;;;;;;7.00;100.00;103133.34;5082169;28;20037;-72
2023/12/18 03:17:46;;;;;;;18.83;11.25;;;;;;;7.03;100.00;103134.25;5076417;28;20296;-72
2023/12/18 03:20:12;;;;;;;24.77;12.43;;;;;;;6.98;100.00;103135.06;5085364;28;20063;-72
2023/12/18 03:22:37;;;;;;;23.42;12.25;;;;;;;7.00;100.00;103129.00;5084195;28;20031;-72
2023/12/18 03:25:04;;;;;;;19.40;11.65;;;;;;;7.02;100.00;103131.63;5085733;28;20020;-72
2023/12/18 03:27:29;;;;;;;24.45;11.95;;;;;;;6.99;100.00;103123.78;5087407;28;20257;-72
2023/12/18 03:29:54;;;;;;;20.17;11.13;;;;;;;7.01;100.00;103125.53;5087967;28;20048;-72
2023/12/18 03:32:20;;;;;;;19.88;11.82;;;;;;;7.03;100.00;103123.81;5078164;28;20430;-72
2023/12/18 03:34:45;;;;;;;18.30;11.13;;;;;;;7.04;100.00;103119.47;5090819;28;20449;-72
2023/12/18 03:37:10;;;;;;;27.60;12.23;;;;;;;7.04;100.00;103127.28;5084446;28;20033;-72
2023/12/18 03:39:36;;;;;;;26.77;11.93;;;;;;;7.03;100.00;103129.03;5076053;28;20350;-72
2023/12/18 03:42:01;;;;;;;23.90;12.30;;;;;;;7.05;100.00;103129.94;5075067;28;20028;-72
2023/12/18 03:44:26;;;;;;;17.48;12.18;;;;;;;7.06;100.00;103123.00;5074006;28;20028;-72
2023/12/18 03:46:52;;;;;;;22.02;11.95;;;;;;;7.07;100.00;103129.94;5075820;28;20072;-72
2023/12/18 03:49:17;;;;;;;21.80;11.10;;;;;;;7.07;100.00;103124.72;5074876;28;20154;-72
2023/12/18 03:51:42;;;;;;;23.65;12.18;;;;;;;7.07;100.00;103120.38;5080609;28;20050;-72
2023/12/18 03:54:08;;;;;;;19.27;11.63;;;;;;;7.06;100.00;103108.22;5078306;28;20032;-72
2023/12/18 03:56:33;;;;;;;32.30;12.40;;;;;;;7.02;100.00;103111.69;5075468;28;20235;-73
2023/12/18 03:58:58;;;;;;;27.77;12.48;;;;;;;6.98;100.00;103111.63;5076553;28;20029;-73
2023/12/18 04:01:24;;;;;;;18.50;11.30;;;;;;;6.98;100.00;103112.47;5076870;28;20036;-73
2023/12/18 04:03:49;;;;;;;28.42;13.27;;;;;;;6.98;100.00;103115.09;5084342;28;20085;-73
2023/12/18 04:06:14;;;;;;;22.60;12.30;;;;;;;6.99;100.00;103115.97;5093064;28;20091;-73
2023/12/18 04:08:40;;;;;;;28.48;11.90;;;;;;;7.03;100.00;103112.53;5075138;28;20103;-73
2023/12/18 04:11:14;;;;;;;21.75;11.73;;;;;;;7.06;100.00;103113.44;5076630;28;20028;-73
2023/12/18 04:13:40;;;;;;;22.75;12.40;;;;;;;7.02;100.00;103113.38;5074892;28;20143;-73
2023/12/18 04:16:06;;;;;;;21.77;12.32;;;;;;;7.03;100.00;103108.19;5079712;28;20358;-73
2023/12/18 04:18:31;;;;;;;21.65;12.25;;;;;;;7.06;100.00;103108.22;5081496;28;20040;-73
2023/12/18 04:20:56;;;;;;;27.40;12.27;;;;;;;7.00;100.00;103100.34;5080700;28;20035;-73
2023/12/18 04:23:21;;;;;;;21.63;12.20;;;;;;;6.98;100.00;103089.03;5084052;28;20036;-73
2023/12/18 04:25:47;;;;;;;26.50;12.85;;;;;;;7.01;100.00;103089.06;5076242;28;20044;-73
2023/12/18 04:28:12;;;;;;;24.63;12.82;;;;;;;7.01;100.00;103089.06;5083182;28;20285;-73
2023/12/18 04:30:38;;;;;;;17.23;11.13;;;;;;;7.03;100.00;103087.34;5084326;28;20040;-73
2023/12/18 04:33:04;;;;;;;23.63;12.63;;;;;;;7.02;100.00;103097.75;5078646;28;20036;-73
2023/12/18 04:35:29;;;;;;;22.40;11.63;;;;;;;7.01;100.00;103094.28;5074270;28;20359;-73
2023/12/18 04:37:54;;;;;;;24.67;12.18;;;;;;;7.02;100.00;103103.88;5076538;28;20093;-73
2023/12/18 04:40:20;;;;;;;19.48;11.68;;;;;;;7.04;100.00;103102.13;5077143;28;20114;-73
2023/12/18 04:42:45;;;;;;;22.55;11.60;;;;;;;7.09;100.00;103097.84;5078905;28;20048;-75
2023/12/18 04:45:11;;;;;;;21.25;12.27;;;;;;;7.03;100.00;103094.31;5074948;28;20255;-75
2023/12/18 04:47:36;;;;;;;27.17;12.60;;;;;;;7.03;100.00;103102.97;5077668;28;20075;-75
2023/12/18 04:50:02;;;;;;;22.08;11.63;;;;;;;7.01;100.00;103099.50;5076002;28;20043;-75
2023/12/18 04:52:27;;;;;;;28.85;13.25;;;;;;;7.02;100.00;103114.28;5080157;28;20227;-75
2023/12/18 04:54:53;;;;;;;27.30;12.15;;;;;;;7.03;100.00;103102.97;5081310;28;20044;-75
2023/12/18 04:57:18;;;;;;;22.10;11.93;;;;;;;7.05;100.00;103110.81;5077343;28;20035;-73
2023/12/18 04:59:44;;;;;;;16.10;10.73;;;;;;;7.07;100.00;103104.75;5074397;28;20036;-73
2023/12/18 05:02:09;;;;;;;23.55;11.95;;;;;;;7.07;100.00;103102.16;5083419;28;20024;-73
2023/12/18 05:04:35;;;;;;;20.05;11.75;;;;;;;7.13;100.00;103100.47;5076389;28;20043;-73
2023/12/18 05:07:00;;;;;;;24.70;11.55;;;;;;;7.16;100.00;103097.91;5083434;28;20037;-73
2023/12/18 05:09:26;;;;;;;17.15;10.68;;;;;;;7.18;100.00;103093.56;5076824;28;20130;-73
2023/12/18 05:11:51;;;;;;;21.30;11.38;;;;;;;7.17;100.00;103091.81;5079950;28;20055;-73
2023/12/18 05:14:17;;;;;;;19.98;11.73;;;;;;;7.16;100.00;103088.34;5075647;28;20365;-73
2023/12/18 05:16:42;;;;;;;22.50;12.35;;;;;;;7.15;100.00;103096.13;5074268;28;20249;-73
2023/12/18 05:19:08;;;;;;;19.58;11.52;;;;;;;7.16;100.00;103083.13;5074665;28;20316;-73
2023/12/18 05:21:33;;;;;;;17.13;11.13;;;;;;;7.17;100.00;103090.09;5081529;28;20382;-73
2023/12/18 05:23:58;;;;;;;18.23;11.10;;;;;;;7.18;100.00;103090.97;5074779;28;20094;-73
2023/12/18 05:26:24;;;;;;;22.92;12.55;;;;;;;7.18;100.00;103085.75;5081340;28;20092;-73
2023/12/18 05:28:49;;;;;;;18.35;11.88;;;;;;;7.17;100.00;103081.38;5074263;28;20040;-73
2023/12/18 05:31:16;;;;;;;19.70;12.15;;;;;;;7.18;100.00;103083.16;5074088;28;20235;-73
2023/12/18 05:33:42;;;;;;;30.70;12.88;;;;;;;7.16;100.00;103080.53;5082223;28;20058;-73
2023/12/18 05:36:08;;;;;;;21.60;12.23;;;;;;;7.13;100.00;103087.44;5084572;28;20099;-73
2023/12/18 05:38:33;;;;;;;19.00;11.85;;;;;;;7.13;100.00;103096.16;5084381;28;20386;-73
2023/12/18 05:40:58;;;;;;;25.25;11.95;;;;;;;7.16;100.00;103092.69;5074138;28;20036;-73
2023/12/18 05:43:24;;;;;;;20.70;12.52;;;;;;;7.16;100.00;103095.28;5079115;28;20037;-73
2023/12/18 05:45:49;;;;;;;18.77;12.23;;;;;;;7.14;100.00;103090.06;5082787;28;20024;-73
2023/12/18 05:48:14;;;;;;;21.38;12.27;;;;;;;7.17;100.00;103092.72;5073643;28;20044;-73
2023/12/18 05:50:40;;;;;;;25.42;12.35;;;;;;;7.16;100.00;103095.28;5073296;28;20047;-73
2023/12/18 05:53:05;;;;;;;27.67;12.45;;;;;;;7.16;100.00;103090.94;5073365;28;20350;-73
2023/12/18 05:55:31;;;;;;;25.58;11.65;;;;;;;7.16;100.00;103088.34;5086012;28;20221;-73
2023/12/18 05:57:56;;;;;;;27.75;12.85;;;;;;;7.16;100.00;103092.69;5086699;28;20666;-73
2023/12/18 06:00:22;;;;;;;22.35;12.68;;;;;;;7.19;100.00;103092.72;5079057;28;20036;-73
2023/12/18 06:02:47;;;;;;;22.42;11.93;;;;;;;7.23;100.00;103092.75;5073419;28;20095;-73
2023/12/18 06:05:13;;;;;;;18.95;11.68;;;;;;;7.22;100.00;103095.34;5073929;28;20028;-73
2023/12/18 06:07:39;;;;;;;23.75;12.52;;;;;;;7.23;100.00;103094.50;5073503;28;20040;-73
2023/12/18 06:10:05;;;;;;;15.65;11.15;;;;;;;7.24;100.00;103093.63;5073513;28;20239;-73
2023/12/18 06:12:32;;;;;;;24.25;12.18;;;;;;;7.24;100.00;103099.72;5089725;28;20044;-75
2023/12/18 06:14:57;;;;;;;17.50;11.20;;;;;;;7.27;100.00;103102.34;5084811;28;20373;-75
2023/12/18 06:17:23;;;;;;;24.63;12.35;;;;;;;7.28;100.00;103103.25;5073796;28;20284;-75
2023/12/18 06:19:49;;;;;;;18.67;11.23;;;;;;;7.29;100.00;103102.38;5073483;28;20040;-75
2023/12/18 06:22:14;;;;;;;28.30;12.48;;;;;;;7.31;100.00;103100.63;5073735;28;20035;-75
2023/12/18 06:24:40;;;;;;;24.95;11.63;;;;;;;7.30;100.00;103109.34;5073784;28;20343;-75
2023/12/18 06:27:05;;;;;;;25.20;12.75;;;;;;;7.27;100.00;103109.28;5073741;28;20032;-75
2023/12/18 06:29:31;;;;;;;23.25;12.52;;;;;;;7.28;100.00;103100.63;5074993;28;20040;-75
2023/12/18 06:31:56;;;;;;;22.27;12.25;;;;;;;7.28;100.00;103101.50;5073813;28;20039;-75
2023/12/18 06:34:22;;;;;;;24.38;13.50;;;;;;;7.29;100.00;103099.75;5077109;28;20035;-74
2023/12/18 06:36:47;;;;;;;22.02;11.95;;;;;;;7.30;100.00;103098.91;5075544;28;20040;-75
2023/12/18 06:39:13;;;;;;;19.35;11.40;;;;;;;7.29;100.00;103105.88;5073920;28;20040;-75
2023/12/18 06:41:38;;;;;;;24.85;12.63;;;;;;;7.28;100.00;103098.03;5072385;28;20047;-75
2023/12/18 06:44:04;;;;;;;25.15;12.98;;;;;;;7.27;100.00;103097.13;5073941;28;20025;-75
2023/12/18 06:46:30;;;;;;;27.33;13.27;;;;;;;7.29;100.00;103095.44;5076127;28;20048;-75
2023/12/18 06:48:56;;;;;;;27.23;12.88;;;;;;;7.25;100.00;103098.84;5073531;28;20100;-75
2023/12/18 06:51:22;;;;;;;18.42;12.20;;;;;;;7.28;100.00;103096.28;5085406;28;20085;-75
2023/12/18 06:53:47;;;;;;;25.85;12.82;;;;;;;7.25;100.00;103098.84;5073255;28;20033;-75
2023/12/18 06:56:12;;;;;;;22.33;12.10;;;;;;;7.23;100.00;103089.28;5073320;28;20040;-75
2023/12/18 06:58:38;;;;;;;19.95;11.35;;;;;;;7.28;100.00;103082.38;5071008;28;20375;-75
2023/12/18 07:01:03;;;;;;;25.25;12.45;;;;;;;7.27;100.00;103085.84;5073468;28;20037;-75
2023/12/18 07:03:28;;;;;;;25.42;12.77;;;;;;;7.25;100.00;103079.75;5075559;28;20273;-75
2023/12/18 07:05:54;;;;;;;22.67;11.82;;;;;;;7.30;100.00;103086.75;5076488;28;20208;-75
2023/12/18 07:08:20;;;;;;;26.35;12.82;;;;;;;7.27;100.00;103081.50;5075446;28;20236;-75
2023/12/18 07:10:46;;;;;;;23.10;12.55;;;;;;;7.23;100.00;103071.03;5076029;28;20077;-75
2023/12/18 07:13:11;;;;;;;27.45;13.50;;;;;;;7.26;100.00;103078.91;5075640;28;20032;-75
2023/12/18 07:15:36;;;;;;;21.90;13.10;;;;;;;7.23;100.00;103071.91;5075586;28;20040;-75
2023/12/18 07:18:03;;;;;;;24.30;13.60;;;;;;;7.26;100.00;103091.94;5075387;28;20036;-75
2023/12/18 07:20:28;;;;;;;24.42;12.48;;;;;;;7.25;100.00;103085.81;5082968;28;20069;-75
2023/12/18 07:22:54;;;;;;;20.98;12.05;;;;;;;7.29;100.00;103087.63;5079365;28;20063;-74
2023/12/18 07:25:19;;;;;;;22.38;13.15;;;;;;;7.25;100.00;103077.13;5075381;28;20256;-75
2023/12/18 07:27:45;;;;;;;27.88;12.95;;;;;;;7.25;100.00;103075.41;5075984;28;20035;-75
2023/12/18 07:30:11;;;;;;;24.27;13.05;;;;;;;7.25;100.00;103084.94;5078317;28;20213;-75
2023/12/18 07:32:37;;;;;;;25.52;13.20;;;;;;;7.26;100.00;103084.13;5075933;28;20047;-75
2023/12/18 07:35:04;;;;;;;27.88;13.25;;;;;;;7.28;100.00;103079.78;5076544;28;20088;-75
2023/12/18 07:37:30;;;;;;;28.40;12.77;;;;;;;7.25;100.00;103085.81;5075972;28;20331;-75
2023/12/18 07:39:56;;;;;;;25.77;13.38;;;;;;;7.25;100.00;103080.59;5082599;28;20039;-75
2023/12/18 07:42:22;;;;;;;25.30;11.77;;;;;;;7.29;100.00;103077.19;5074999;28;20032;-75
2023/12/18 07:44:48;;;;;;;25.70;12.52;;;;;;;7.29;100.00;103076.28;5074826;28;20197;-75
2023/12/18 07:47:14;;;;;;;30.02;13.10;;;;;;;7.29;100.00;103077.19;5075091;28;20039;-75
2023/12/18 07:49:40;;;;;;;22.52;12.00;;;;;;;7.32;100.00;103083.28;5076911;28;20287;-75
2023/12/18 07:52:05;;;;;;;23.83;13.55;;;;;;;7.30;100.00;103084.13;5076863;28;20040;-75
2023/12/18 07:54:30;;;;;;;19.92;11.27;;;;;;;7.34;100.00;103086.78;5073328;28;20067;-75
2023/12/18 07:56:56;;;;;;;23.13;13.05;;;;;;;7.34;100.00;103081.56;5075207;28;20052;-75
2023/12/18 07:59:21;;;;;;;22.17;12.68;;;;;;;7.30;100.00;103089.34;5078795;28;20037;-75
2023/12/18 08:01:46;;;;;;;29.73;14.40;;;;;;;7.32;100.00;103093.72;5075957;28;20095;-75
2023/12/18 08:04:13;;;;;;;21.13;12.73;;;;;;;7.29;100.00;103089.31;5076142;28;20035;-75
2023/12/18 08:06:38;;;;;;;25.58;13.45;;;;;;;7.27;100.00;103085.84;5075537;28;20324;-75
2023/12/18 08:09:03;;;;;;;26.90;13.45;;;;;;;7.28;100.00;103090.22;5075264;28;20063;-75
2023/12/18 08:11:29;;;;;;;22.52;13.00;;;;;;;7.31;100.00;103090.22;5074966;28;20048;-75
2023/12/18 08:13:54;;;;;;;23.58;13.00;;;;;;;7.27;100.00;103089.31;5080656;28;20032;-75
2023/12/18 08:16:20;;;;;;;19.98;13.13;;;;;;;7.26;100.00;103092.78;5068967;28;20051;-75
2023/12/18 08:18:47;;;;;;;20.10;12.00;;;;;;;7.31;100.00;103085.00;5071978;28;20108;-75
2023/12/18 08:21:14;;;;;;;24.30;14.27;;;;;;;7.27;100.00;103088.44;5070699;28;20032;-75
2023/12/18 08:23:42;;;;;;;18.83;12.05;;;;;;;7.27;100.00;103081.50;5070794;28;20078;-75
2023/12/18 08:26:11;;;;;;;21.77;13.30;;;;;;;7.29;100.00;103091.94;5071767;28;20459;-75
2023/12/18 08:28:43;;;;;;;;;;;;;;;7.30;100.00;103093.69;5067646;28;20048;-75
2023/12/18 08:31:09;;;;;;;20.67;12.57;;;;;;;7.33;100.00;103098.03;5069736;28;19920;-75
2023/12/18 08:33:34;;;;;;;26.48;12.75;;;;;;;7.28;100.00;103088.47;5069909;28;20020;-75
2023/12/18 08:35:59;;;;;;;20.25;12.85;;;;;;;7.26;100.00;103097.13;5068579;28;20048;-74
2023/12/18 08:38:28;;;;;;;25.95;12.60;;;;;;;7.27;100.00;103102.34;5069891;28;20393;-75
2023/12/18 08:40:53;;;;;;;20.70;12.90;;;;;;;7.30;100.00;103102.38;5069042;28;20267;-75
2023/12/18 08:43:18;;;;;;;30.38;12.88;;;;;;;7.24;100.00;103096.22;5070554;28;20282;-75
2023/12/18 08:45:44;;;;;;;21.25;13.50;;;;;;;7.28;100.00;103098.88;5068519;28;20074;-74
2023/12/18 08:48:09;;;;;;;26.92;13.23;;;;;;;7.27;100.00;103091.91;5070136;28;20043;-75
2023/12/18 08:50:34;;;;;;;22.58;12.15;;;;;;;7.23;100.00;103084.94;5067061;28;20024;-74
2023/12/18 08:53:00;;;;;;;21.05;12.63;;;;;;;7.32;100.00;103085.91;5056584;28;20038;-75
2023/12/18 08:55:25;;;;;;;22.67;12.68;;;;;;;7.30;100.00;103076.31;5059936;28;20081;-75
2023/12/18 08:57:51;;;;;;;27.50;13.27;;;;;;;7.32;100.00;103085.91;5069600;28;20041;-75
2023/12/18 09:00:16;;;;;;;27.02;13.18;;;;;;;7.28;100.00;103072.81;5070565;28;20054;-75
2023/12/18 09:02:42;;;;;;;24.80;13.00;;;;;;;7.29;100.00;103076.28;5060493;28;20069;-75
2023/12/18 09:05:07;;;;;;;23.55;12.45;;;;;;;7.30;100.00;103062.41;5069129;28;20028;-75
2023/12/18 09:07:33;;;;;;;19.23;11.93;;;;;;;7.37;100.00;103065.94;5065254;28;20420;-75
2023/12/18 09:09:58;;;;;;;24.52;12.75;;;;;;;7.29;100.00;103058.94;5069995;28;20273;-75
2023/12/18 09:12:23;;;;;;;22.15;13.35;;;;;;;7.33;100.00;103057.25;5064873;28;20062;-75
2023/12/18 09:14:49;;;;;;;30.30;13.80;;;;;;;7.34;100.00;103058.97;5070981;28;20462;-75
2023/12/18 09:17:14;;;;;;;25.83;13.75;;;;;;;7.33;100.00;103057.25;5070480;28;20294;-75
2023/12/18 09:19:39;;;;;;;21.23;13.35;;;;;;;7.38;100.00;103058.13;5067792;28;20345;-75
2023/12/18 09:22:05;;;;;;;31.27;14.18;;;;;;;7.39;100.00;103065.09;5071286;28;20043;-75
2023/12/18 09:24:30;;;;;;;23.55;12.85;;;;;;;7.45;100.00;103061.66;5063331;28;20033;-75
2023/12/18 09:26:56;;;;;;;21.98;13.32;;;;;;;7.47;100.00;103060.81;5057560;28;20036;-75
2023/12/18 09:29:22;;;;;;;28.08;13.05;;;;;;;7.48;100.00;103059.09;5055990;28;20032;-74
2023/12/18 09:31:48;;;;;;;30.90;13.52;;;;;;;7.52;100.00;103060.00;5057316;28;20071;-75
2023/12/18 09:34:14;;;;;;;18.67;12.20;;;;;;;7.57;100.00;103061.75;5070259;28;20239;-75
2023/12/18 09:36:39;;;;;;;27.45;12.70;;;;;;;7.56;100.00;103059.13;5069957;28;20267;-75
2023/12/18 09:39:05;;;;;;;24.38;12.40;;;;;;;7.59;100.00;103062.66;5069370;28;20348;-74
2023/12/18 09:41:30;;;;;;;21.85;11.48;;;;;;;7.64;100.00;103057.44;5061765;28;20093;-75
2023/12/18 09:43:56;;;;;;;24.00;12.98;;;;;;;7.69;100.00;103055.75;5056641;28;20033;-75
2023/12/18 09:46:23;;;;;;;17.70;10.73;;;;;;;7.73;100.00;103052.31;5065390;28;20035;-75
2023/12/18 09:48:49;;;;;;;19.85;11.73;;;;;;;7.73;100.00;103054.03;5065663;28;20033;-73
2023/12/18 09:51:17;;;;;;;32.85;12.25;;;;;;;7.73;100.00;103065.38;5053849;28;20037;-72
2023/12/18 09:53:43;;;;;;;21.00;12.13;;;;;;;7.76;100.00;103054.06;5050190;28;20062;-73
2023/12/18 09:56:10;;;;;;;25.80;12.70;;;;;;;7.78;100.00;103057.56;5054161;28;20060;-73
2023/12/18 09:58:37;;;;;;;25.23;13.48;;;;;;;7.81;100.00;103049.75;5055385;28;20032;-73
2023/12/18 10:01:02;;;;;;;20.52;12.23;;;;;;;7.78;100.00;103031.47;5054107;28;20566;-73
2023/12/18 10:03:27;;;;;;;22.17;11.93;;;;;;;7.79;100.00;103046.28;5053529;28;20119;-73
2023/12/18 10:05:53;;;;;;;32.45;12.98;;;;;;;7.78;100.00;103037.53;5053251;28;20047;-73
2023/12/18 10:08:18;;;;;;;26.92;12.55;;;;;;;7.74;100.00;103038.41;5069338;28;20067;-73
2023/12/18 10:10:44;;;;;;;24.35;12.60;;;;;;;7.79;100.00;103036.69;5068842;28;20385;-73
2023/12/18 10:13:11;;;;;;;21.20;12.32;;;;;;;7.84;100.00;103032.38;5070061;28;20373;-73
2023/12/18 10:15:39;;;;;;;19.65;12.10;;;;;;;7.90;100.00;103034.16;5068458;28;20028;-73
2023/12/18 10:18:05;;;;;;;22.05;13.10;;;;;;;7.92;100.00;103021.13;5069455;28;20033;-73
2023/12/18 10:20:34;;;;;;;22.58;13.45;;;;;;;7.90;100.00;103028.94;5066865;28;20036;-73
2023/12/18 10:23:00;;;;;;;23.35;13.30;;;;;;;7.85;100.00;103031.50;5067828;28;21169;-73
2023/12/18 10:25:26;;;;;;;24.73;13.40;;;;;;;7.81;100.00;103018.44;5069464;28;20021;-73
2023/12/18 10:27:55;;;;;;;28.85;13.05;;;;;;;7.85;100.00;103007.16;5070749;28;20036;-73
2023/12/18 10:30:25;;;;;;;23.48;13.95;;;;;;;7.84;100.00;103011.50;5071789;28;20358;-73
2023/12/18 10:32:51;;;;;;;23.23;13.63;;;;;;;7.85;100.00;103009.78;5071136;28;20066;-73
2023/12/18 10:35:17;;;;;;;23.40;14.27;;;;;;;7.84;100.00;103011.50;5068862;28;20287;-73
2023/12/18 10:37:53;;;;;;;25.58;13.05;;;;;;;7.85;100.00;103001.94;5069889;28;20072;-73
2023/12/18 10:40:20;;;;;;;20.83;12.98;;;;;;;7.86;100.00;102998.47;5072600;28;20093;-73
2023/12/18 10:42:59;;;;;;;24.20;13.45;;;;;;;7.92;100.00;102997.63;5070125;28;20360;-73
2023/12/18 10:45:26;;;;;;;27.27;12.65;;;;;;;7.92;100.00;102990.69;5071339;28;20037;-73
2023/12/18 10:47:53;;;;;;;28.33;12.48;;;;;;;7.93;100.00;102989.81;5069795;28;20029;-73
2023/12/18 10:50:20;;;;;;;25.75;13.15;;;;;;;7.89;100.00;102988.03;5057623;28;20316;-73
2023/12/18 10:52:46;;;;;;;30.67;13.27;;;;;;;7.94;100.00;102985.47;5057062;28;20036;-73
2023/12/18 10:55:14;;;;;;;21.60;12.57;;;;;;;7.97;100.00;102990.72;5071315;28;20111;-73
2023/12/18 10:57:42;;;;;;;32.72;13.55;;;;;;;7.98;100.00;102982.00;5071223;28;20055;-73
2023/12/18 11:00:09;;;;;;;33.17;13.48;;;;;;;8.00;100.00;102988.97;5072123;28;20201;-73
2023/12/18 11:02:37;;;;;;;26.75;13.00;;;;;;;8.03;100.00;102988.97;5058634;28;20041;-73